Latest Observation

109 Stations

10 Minute Data
as of 9/1/26 2:27 AM PDT
Station Date Time Temp (°F) RH (%) Dew Pt (°F) Wind Spd (mph) Wind Dir (°) Wind Gust (mph) Wind Gst Dir (°) Latest Rain (In) Soil Moist (%) Soil Temp (°F) Daily Rain (In) Daily Min Temp (°F) Daily Max Temp (°F) Daily Max Wind (mph)
Hobart Mills 9/1/26 0220 56.1   10.5 50   4 37.8   7.8 1.3   0.4 SW | 232 5.6   2.7 SW | 225 0.00 7.7   0.0 68.1   0.1 0.00 54.7   9.4 56.2   8.9 8.2   4.2
Prosser Dam 9/1/26 0220 54.9   9.2 59   14 40.7   3.4 4.3   3.0 W | 269 6.3   4.2 W | 268 0.00 5.4   0.0 64.7   0.0 0.00 51.3   5.8 55.1   7.0 7.7   5.2
West Incline Village 9/1/26 0220 52.8   2.5 49   7 34.0   5.6 1.0   1.3 WSW | 252 4.8   2.0 W | 273 0.00 11.8   0.1 59.1   0.0 0.00 52.3   2.7 53.8   3.8 5.1   2.0
Incline Village (Fairview Blvd) 9/1/26 0220 54.8   3.2 44   10 33.1   8.2 0.7   0.7 NNW | 342 4.3   4.3 NNW | 343 0.00 7.7   0.0 72.3   0.1 0.00 54.7   3.2 56.0   3.2 4.3   2.0
Incline Village (Diamond Peak) 9/1/26 0220 51.4   5.3 48   5 32.4   7.6 2.2   2.2 NW | 305 5.5   5.5 WNW | 300 0.00 2.5   0.0 62.8   0.6 0.00 51.4   4.3 52.9   4.6 7.1   7.1
Incline Village (Mill Creek) 5/30/36 1610 74.5 37 46.5 0.5 SW | 236 1.7 SSW | 213 0.00 0.0 0.0 0.00 74.4 74.5 1.7
Incline Village (Lakeshore Blvd) 9/1/26 0220 50.0   0.2 64   6 38.4   2.6 1.7   1.3 NE | 40 5.0   3.6 NE | 47 0.00 17.9   0.5 61.2   0.3 0.00 49.6   0.6 52.1   0.6 5.7   2.9
Glenbrook 9/1/26 0220 54.4   2.2 44   26 33.1   9.6 1.9   1.2 NNE | 31 4.7   1.7 NE | 46 0.00 42.9   0.1 59.6   0.2 0.00 53.1   1.2 55.6   1.5 4.7   0.5
Zephyr Cove 9/1/26 0220 57.4   2.2 39   19 32.7   8.1 0.1   0.1 NE | 53 2.0   2.0 ENE | 65 0.00 2.8   0.1 66.8   0.7 0.00 56.8   1.9 57.7   1.8 3.1   3.1
Kingsbury Grade 9/1/26 0220 54.4   2.7 42   11 31.5   3.5 1.2   0.3 N | 358 3.4   0.0 N | 6 0.00 2.4   0.1 70.3   0.5 0.00 52.7   1.4 55.1   1.6 5.6   1.5
South Daggett Pass (Ridge) 9/1/26 0220 51.8   6.6 44   5 30.5   3.2 2.3   2.3 WNW | 294 9.3   9.3 NW | 310 0.00 2.2   0.0 64.5   0.4 0.00 51.7   5.1 53.2   6.8 13.8   10.4
Palomino Valley 9/1/26 0220 63.0   6.6 36   1 35.7   5.4 0.0   1.0 N | 5 1.0   1.4 N | 1 0.00 6.8   0.0 79.6   0.1 0.00 60.2   4.5 64.6   4.5 4.6   1.4
East Cold Springs 9/1/26 0220 61.9   3.5 40   4 37.5   6.1 11.5   10.4 WSW | 237 18.6   13.4 WSW | 250 0.00 1.7   0.0 73.1   0.5 0.00 61.8   4.0 62.8   0.3 20.9   9.7
Peavine 8/22/26 1700 81.6   1.5 27   0 44.0   1.5 22.7   10.4 SW | 225 48.4   26.2 SW | 220 0.00 - 53.4   0.0 0.00 69.4   2.1 87.6   2.1 48.4   26.2
West Verdi Peak 9/1/26 0320 55.7   2.0 50   6 37.6   1.4 2.6   2.3 ESE | 114 10.4   9.1 ESE | 121 0.00 6.6   0.0 71.3   0.2 0.00 55.3   1.3 58.6   0.6 16.8   10.9
West Verdi 9/1/26 0220 62.9   5.0 40   5 38.6   1.8 7.3   6.8 SSW | 203 21.5   17.8 SSW | 201 0.00 6.3   0.0 82.8   0.6 0.00 61.7   4.4 63.6   3.2 21.5   16.0
South Verdi 9/1/26 0220 60.7   0.0 42   2 37.6   1.5 25.6   19.2 SSW | 211 38.5   27.4 SSW | 212 0.00 10.8   0.0 75.0   0.4 0.00 60.5   2.0 61.4   1.2 38.5   23.0
Northwest Reno 9/1/26 0220 63.5   1.4 39   6 37.8   2.8 31.0   29.3 W | 270 43.5   39.4 W | 263 0.00 25.3   0.1 80.2   1.1 0.00 63.2   0.5 65.2   0.1 43.5   36.9
North Lawton 8/28/26 1620 63.8   17.1 74   52 55.4   16.5 1.5   11.6 ESE | 121 5.1   19.0 SE | 124 0.00 - 78.2   0.0 0.05 59.2   7.5 71.9   13.3 20.4   4.6
West Reno (Mogul) 9/1/26 0220 63.6   2.7 36   4 36.0   0.5 6.5   6.5 W | 278 13.8   12.8 WSW | 249 0.00 19.7   0.0 79.4   0.0 0.00 62.8   2.2 66.9   3.4 18.9   10.8
Caughlin (Hunter Lake Trail) 9/1/26 0220 61.8   1.1 36   2 34.4   2.5 3.5   1.7 SSW | 199 5.8   1.2 SSW | 208 0.00 16.7   0.0 75.9   0.6 0.00 61.5   1.0 64.6   1.8 7.8   2.0
ArrowCreek 9/1/26 0220 62.5   2.0 41   5 38.3   1.6 6.9   0.6 S | 177 9.7   1.5 S | 175 0.00 - 32.0   0.0 0.00 62.3   1.6 65.0   0.5 9.7   0.6
Tracy 9/1/26 0220 70.3   5.3 29   4 36.4   1.7 5.5   3.7 WSW | 249 13.4   9.2 W | 269 0.00 16.2   0.1 82.1   0.5 0.00 70.0   5.4 71.1   1.4 14.7   5.4
Virginia Highlands 9/1/26 0220 61.1   0.1 36   1 33.7   0.7 3.2   2.6 S | 189 7.9   5.0 SW | 217 0.00 8.0   0.0 74.8   0.1 0.00 60.9   0.0 62.3   1.8 10.8   6.6
Virginia City 9/1/26 0220 60.3   4.1 40   12 35.6   5.5 8.6   5.9 W | 264 17.4   13.7 W | 270 0.00 4.9   0.0 76.6   0.6 0.00 60.1   3.5 62.7   2.8 17.6   12.9
Six Mile Canyon 9/1/26 0220 69.2   7.2 23   9 29.7   2.0 6.0   6.0 WNW | 286 8.1   8.1 WNW | 288 0.00 12.7   0.1 80.8   0.6 0.00 68.9   7.3 70.6   3.5 10.7   5.5
Mt Rose Highway 9/1/26 0220 56.8   0.2 31   9 26.4   6.5 4.3   0.9 WSW | 239 15.4   8.6 WSW | 246 0.00 7.5   0.0 62.9   0.0 0.00 56.6   0.1 57.8   0.4 24.3   16.6
Pleasant Valley 9/1/26 0220 62.6   5.3 40   10 38.1   0.8 1.8   0.5 NW | 317 3.5   0.1 NW | 320 0.00 2.4   0.1 80.4   0.9 0.00 62.4   6.1 64.3   5.2 5.7   0.5
New Washoe City 9/1/26 0220 64.2   7.8 35   8 36.0   1.8 0.7   3.8 E | 101 2.7   5.8 E | 81 0.00 3.5   0.0 74.4   0.1 0.00 63.9   7.8 66.6   8.0 17.1   8.6
Franktown Creek 9/1/26 0220 62.6   6.3 38   10 36.9   0.2 3.2   3.1 E | 90 13.4   11.9 ENE | 62 0.00 7.2   0.0 73.2   0.0 0.00 61.5   6.7 69.6   11.1 13.4   10.6
Musgrove Creek 9/1/26 0220 62.2   0.3 42   6 39.0   3.9 3.2   2.2 SW | 217 10.1   7.9 WSW | 258 0.00 10.3   0.0 61.0   0.2 0.00 62.0   0.6 63.5   0.1 12.8   10.1
East Carson 11/23/24 0110 28.6   28.4 - - 4.7   11.0 SW | 220 14.7   10.1 SW | 219 0.02 - 50.9   0.1 0.02 -25.9   79.1 42.9   14.6 16.0   10.7
Kings Canyon 9/1/26 0220 66.7   9.1 28   15 33.0   2.3 6.6   3.0 SW | 218 19.0   13.8 SW | 236 0.00 4.2   0.0 71.4   0.5 0.00 66.5   10.1 68.4   8.9 23.1   16.1
Carson City (Voltaire Canyon) 9/1/26 0220 67.3   0.5 28   9 32.8   7.2 13.0   8.1 SW | 220 19.2   11.6 SSW | 207 0.00 2.8   0.0 79.2   0.1 0.00 66.9   0.0 69.1   0.4 24.0   13.8
Jacks Valley 9/1/26 0220 66.9   6.3 24   20 28.9   9.9 10.2   10.2 WNW | 291 22.7   22.7 NW | 308 0.00 4.6   0.0 80.0   1.0 0.00 65.8   5.7 67.1   4.0 22.7   19.3
Genoa 9/1/26 0220 68.2   7.3 25   21 31.3   8.7 0.9   0.9 SW | 219 7.8   7.8 SW | 222 0.00 2.4   0.1 70.2   1.0 0.00 67.8   7.2 69.5   5.5 13.2   12.3
South Genoa (Walleys Hot Springs) 9/1/26 0220 69.7   17.4 25   46 31.9   11.2 16.7   16.7 W | 268 26.7   26.7 WSW | 254 0.00 5.0   0.3 74.7   0.0 0.00 61.1   9.1 70.0   8.6 26.7   24.6
SW Gardnerville (HWY 88) 9/1/26 0100 66.8   7.0 27   29 31.8   12.4 1.0   1.0 NNE | 30 5.3   5.3 NNE | 33 0.00 2.8   0.0 71.2   0.5 0.00 46.1   3.6 81.2   0.0 26.4   7.9
Sheridan 9/1/26 0220 63.2   4.1 27   23 29.1   11.9 1.8   0.2 S | 185 3.5   1.2 SW | 230 0.00 1.1   0.0 76.5   0.3 0.00 61.6   3.1 67.9   3.9 11.3   7.0
Ruhenstroth 9/1/26 0220 67.0   7.1 25   22 29.7   9.5 13.0   12.1 S | 186 18.8   14.7 S | 191 0.00 7.0   0.1 78.8   1.3 0.00 66.6   7.6 67.7   4.0 18.8   11.3
Double Spring 9/1/26 0220 58.6   5.2 37   23 32.2   7.7 3.5   1.0 NE | 48 8.4   5.2 ENE | 57 0.00 25.8   0.1 75.8   1.3 0.00 55.3   2.8 60.7   4.5 10.9   5.6
North Topaz Lake 9/1/26 0220 65.5   0.5 23   15 26.9   13.0 5.2   3.0 NW | 309 8.7   5.1 NW | 312 0.00 7.6   0.1 72.6   1.3 0.00 65.0   0.4 68.1   1.3 13.8   7.3
Wild Oat Mountain 9/1/26 0220 64.5   0.1 21   20 23.5   16.8 11.2   10.0 SW | 232 19.6   17.0 SW | 229 0.00 5.9   0.0 74.4   0.3 0.00 62.1   2.1 65.1   0.8 21.1   14.5
Smith Valley 9/1/26 0220 66.1   5.5 34   12 37.2   2.5 3.8   0.6 ENE | 65 7.7   1.7 ENE | 62 0.00 2.9   0.0 80.4   0.7 0.00 64.8   5.1 71.8   3.3 11.8   0.5
Pine Grove Mountain 9/1/26 0220 56.8   0.9 31   7 26.3   5.8 2.5   2.5 WSW | 241 5.5   0.7 SSW | 212 0.00 7.2   0.1 68.5   1.7 0.00 56.0   1.4 57.5   0.5 9.9   2.0
Paradise Hill 9/1/26 0220 64.9   6.7 26   1 29.0   4.9 3.4   3.8 N | 353 5.5   3.7 NNE | 31 0.00 10.3   0.1 77.1   1.7 0.00 59.8   4.2 66.4   0.4 8.3   5.1
Winnemucca 9/1/26 0220 70.8   10.4 25   2 32.9   7.4 7.3   1.9 S | 179 10.4   1.7 S | 178 0.00 5.8   0.0 77.1   0.2 0.00 68.8   9.2 71.2   8.9 13.2   1.0
NE Elko 9/1/26 0220 51.8   6.0 52   15 34.7   13.8 3.7   3.0 E | 95 6.3   4.6 SE | 129 0.00 5.7   0.0 73.2   0.6 0.00 51.4   6.1 54.2   4.6 6.3   2.6
North Elko 9/1/26 0220 65.2   6.1 38   9 38.8   12.1 4.0   2.9 W | 259 8.8   5.7 E | 94 0.00 25.0   0.0 74.8   0.4 0.00 63.6   5.8 66.6   4.1 12.0   1.4
South Elko 9/1/26 0220 61.8   3.0 43   12 39.3   10.8 7.4   3.3 S | 169 15.4   9.2 S | 181 0.00 13.8   0.1 70.6   1.0 0.00 59.3   1.3 62.4   0.7 18.8   7.1
Lamoille 9/1/26 0220 56.5   7.1 48   3 37.0   8.4 4.4   2.1 ESE | 109 6.8   3.5 ESE | 121 0.00 6.4   0.1 68.3   0.6 0.00 51.7   2.8 57.4   3.9 7.9   0.0
Reid Gardner Sub 9/1/26 0220 79.9   6.4 43   10 55.2   13.0 2.9   0.3 NW | 318 4.0   0.2 W | 279 0.00 24.8   0.1 91.4   0.1 0.00 79.1   7.0 83.9   5.4 6.6   0.9
Corn Creek 9/1/26 0220 80.6   1.1 25   2 41.3   0.9 16.0   10.2 E | 84 27.7   20.0 ESE | 103 0.00 3.2   0.0 91.3   0.0 0.00 79.0   1.1 82.0   0.4 27.7   20.0
Lucky Strike 9/1/26 0220 71.9   2.2 24   6 33.3   7.7 13.3   6.1 S | 182 20.6   10.9 SSW | 197 0.00 3.2   0.0 84.3   1.4 0.00 71.6   1.2 73.1   2.0 28.8   18.8
Lower Angel Peak 9/1/26 0220 66.2   1.9 31   8 34.7   7.2 10.6   6.0 SSE | 155 20.5   12.3 SSW | 192 0.00 3.2   0.0 75.9   0.2 0.00 66.0   2.0 67.0   1.7 27.8   18.9
Angel Peak 9/1/26 0220 54.1   4.3 42   7 31.5   8.0 29.4   18.4 S | 188 43.2   27.4 S | 185 0.00 2.5   0.0 65.9   0.0 0.00 53.8   4.1 55.1   4.5 45.2   24.5
Upper Kyle Canyon 9/1/26 0220 59.1   5.2 32   10 29.1   11.3 12.5   9.8 E | 96 26.0   18.8 ESE | 104 0.00 7.8   0.0 76.8   0.1 0.00 58.7   5.3 60.2   5.1 30.7   15.9
Mt Charleston 9/1/26 0220 59.7   5.0 30   11 28.6   12.1 3.9   2.4 NNE | 16 13.3   9.1 NNE | 28 0.00 13.4   0.0 69.5   0.0 0.00 59.0   4.1 60.8   5.1 14.9   4.3
Mid Kyle Canyon 9/1/26 0220 66.4   4.8 27   19 31.3   9.3 11.8   8.3 WSW | 254 20.2   14.4 WSW | 258 0.00 5.9   0.0 76.7   0.7 0.00 65.8   4.7 67.8   0.1 25.8   15.4
Blue Diamond 9/1/26 0220 78.8   3.8 20   10 34.5   7.1 4.4   3.3 W | 262 6.5   3.6 W | 263 0.00 1.3   0.0 89.0   0.1 0.00 77.4   2.9 80.4   2.5 8.9   2.9
Artesian Sub 9/1/26 0220 85.5   0.0 21   4 40.9   4.3 6.0   5.0 ESE | 112 11.6   9.7 ESE | 121 0.00 11.7   0.1 94.1   0.5 0.00 85.4   0.5 88.2   0.8 11.6   7.7
North Henderson 9/1/26 0220 84.7   5.7 40   8 57.7   1.6 7.3   5.6 ESE | 106 10.7   7.7 ESE | 109 0.00 10.6   0.2 98.4   1.1 0.00 84.5   4.9 89.0   1.9 12.5   6.5
Sandy Valley 9/1/26 0220 78.6   3.7 19   12 33.2   15.4 4.2   1.1 WSW | 257 6.7   0.4 WSW | 249 0.00 8.5   0.2 92.8   0.5 0.00 77.6   3.1 79.6   3.7 10.9   3.4
Searchlight 9/1/26 0230 71.2   4.4 64   18 58.6   5.1 1.9   0.3 SE | 140 2.9   0.1 SSE | 159 0.00 6.1   0.2 89.6   2.5 0.00 70.2   3.1 72.7   3.5 5.5   0.2
Laughlin 9/1/26 0220 89.1   4.1 49   9 67.4   2.5 4.8   1.1 SW | 218 7.6   2.6 SW | 215 0.00 4.6   0.1 102.0   1.8 0.00 88.7   0.9 89.2   4.2 9.2   3.0
31Mission Hills 9/1/26 0220 79.8   6.7 43   12 55.3   3.1 10.2   1.7 SSE | 153 13.9   2.6 SSE | 161 0.00 7.4   0.0 90.1   2.4 0.00 79.7   5.4 80.8   6.1 16.8   2.0
32 Enterprise Sierra Cliffs 9/1/26 0220 80.6   2.8 18   5 33.5   8.0 11.3   0.7 SSW | 194 16.8   2.1 SSW | 197 0.00 1.4   0.0 88.9   0.2 0.00 80.0   3.0 81.4   3.7 19.0   0.6
29 Calico Basin 9/1/26 0220 78.6   2.0 17   7 29.5   10.3 12.7   6.5 SW | 222 16.4   8.9 SW | 223 0.00 2.7   0.1 88.6   0.5 0.00 78.4   1.2 79.6   3.6 18.8   8.6
28 Indian Springs 9/1/26 0220 77.1   1.0 22   2 34.8   1.1 5.7   4.7 NW | 313 10.2   7.3 NNW | 342 0.00 4.7   0.1 91.0   0.7 0.00 76.1   1.1 79.7   1.8 10.2   4.1
30 Jean 9/1/26 0220 74.4   5.5 26   1 37.3   6.1 1.8   7.0 S | 183 3.4   8.7 SSW | 198 0.00 5.3   0.1 89.0   0.4 0.00 74.0   5.8 76.6   6.3 9.7   6.3
VC Highlands NW 9/1/26 0220 58.7   2.3 35   3 31.3   0.1 0.9   0.3 SW | 216 5.8   4.0 SW | 216 0.00 1.6   0.0 69.4   1.3 0.00 58.5   1.9 60.6   0.8 11.4   8.9
Glenbrook-Spooner Summit 9/1/26 0220 54.0   4.8 38   26 28.9   8.5 4.5   2.7 W | 261 10.1   6.8 SW | 234 0.00 7.8   0.0 69.4   0.6 0.00 53.1   4.1 55.0   4.5 11.6   8.3
Hobo Hot Springs 9/1/26 0220 62.3   9.4 34   33 33.4   8.7 1.3   1.0 NW | 315 3.0   1.7 NNW | 345 0.00 1.1   0.1 72.9   0.0 0.00 60.4   8.2 62.7   8.2 3.0   0.2
Jack Valley Ranch 2 9/1/26 0220 66.2   4.6 23   14 27.2   7.8 6.1   0.6 NW | 312 16.5   8.0 W | 270 0.00 2.2   0.0 78.2   0.5 0.00 66.0   7.7 67.2   4.6 19.6   11.0
Genoa North 2 9/1/26 0220 67.5   5.8 23   22 28.2   11.6 5.1   3.5 SW | 224 18.3   15.3 SW | 235 0.00 0.9   0.1 79.4   0.3 0.00 67.2   6.0 67.9   4.2 21.5   15.8
Mottsville 2 9/1/26 0220 65.6   9.6 23   37 26.4   15.6 4.0   4.0 WNW | 284 7.0   5.8 WNW | 284 0.00 1.3   0.1 76.0   0.2 0.00 61.1   6.1 67.0   5.8 7.9   4.6
Kingsbury Village 3 9/1/26 0220 51.1   4.2 40   2 27.6   2.3 3.3   1.7 NNW | 345 5.5   3.0 NW | 311 0.00 3.2   0.1 64.6   0.7 0.00 50.7   0.7 51.8   4.0 6.7   3.4
Kingsbury-Benjamin Dr 2 9/1/26 0220 53.1   1.9 39   11 28.9   8.1 2.4   2.4 SW | 236 5.5   5.5 SW | 220 0.00 3.4   0.2 73.0   0.8 0.00 52.9   2.0 54.2   1.2 6.6   5.2
Smith Valley-Wellington 9/1/26 0220 68.1   5.4 21   19 26.6   11.5 8.3   0.2 WSW | 240 14.7   2.9 SW | 234 0.00 3.7   0.0 83.6   0.9 0.00 66.7   4.0 68.4   4.5 18.1   5.5
Sheridan South 2 9/1/26 0220 63.4   5.1 26   27 27.7   13.4 1.7   1.7 SW | 229 4.8   4.8 SW | 222 0.00 0.6   0.0 77.2   0.5 0.00 62.6   9.3 67.1   7.4 9.9   7.1
Silver Springs 9/1/26 0220 72.7   7.0 21   1 30.7   5.0 10.4   9.3 WNW | 291 17.4   14.0 WNW | 294 0.00 5.2   0.1 84.2   1.2 0.00 72.5   9.2 73.6   6.5 21.2   16.4
Fernley 9/1/26 0220 69.0   6.9 28   5 34.9   10.6 5.5   0.3 NW | 318 14.2   7.2 NNW | 332 0.00 3.2   0.1 80.9   2.4 0.00 68.7   9.6 70.1   7.5 14.2   6.7
Spanish Springs 9/1/26 0220 64.0   8.5 35   9 35.7   1.8 0.7   0.5 W | 264 2.7   1.5 WSW | 256 0.00 10.8   0.0 81.4   0.8 0.00 63.5   8.3 66.9   9.1 7.0   4.3
Suttcliffe South 2 9/1/26 0220 67.0   7.0 29   1 34.1   5.0 4.6   1.6 W | 275 5.8   2.6 W | 277 0.00 4.5   0.0 78.4   2.1 0.00 64.9   10.5 67.7   7.1 7.2   1.2
Lemmon Valley North 9/1/26 0220 63.4   15.4 33   11 33.8   6.9 10.0   9.9 SSW | 211 17.8   16.8 SSW | 205 0.00 2.1   0.0 74.5   0.4 0.00 63.1   16.8 64.9   12.5 21.0   17.5
Lemmon Valley NW 3 9/1/26 0220 64.4   11.5 30   9 32.2   3.4 5.7   3.5 WNW | 292 9.9   7.0 WNW | 290 0.00 1.3   0.0 78.8   0.9 0.00 63.5   11.8 64.9   6.8 14.4   7.5
VC Highlands North 9/1/26 0220 60.7   11.2 32   13 30.9   1.6 1.3   1.3 S | 172 4.8   4.1 SSW | 192 0.00 5.0   0.1 73.1   4.1 0.00 60.3   10.9 62.0   11.1 8.8   8.1
Upper Voltaire Cyn 9/1/26 0220 62.7   1.2 28   2 29.3   3.0 5.2   3.2 SSW | 205 12.0   8.1 SW | 215 0.00 1.1   0.0 76.1   0.5 0.00 62.4   0.2 64.6   1.9 23.5   19.1
Yerington NW 9/1/26 0220 61.5   5.8 52   1 43.8   5.9 1.5   3.1 ESE | 120 3.0   3.5 SE | 130 0.00 7.3   0.0 78.4   1.6 0.00 61.3   8.0 67.1   3.1 6.5   1.2
Spanish Springs SW 9/1/26 0220 61.2   2.3 35   1 33.4   2.5 2.6   1.1 SW | 222 5.5   3.4 SW | 216 0.00 1.6   0.0 80.5   0.8 0.00 61.0   2.2 64.3   0.8 5.5   2.5
Cosgrave 2 8/27/26 0750 62.9   4.1 34   3 33.8   1.4 2.6   0.5 WSW | 246 4.1   1.0 W | 267 0.00 3.8   0.1 77.4   2.9 0.00 62.7   3.3 77.4   3.5 11.2   3.9
Winnemucca-Grass Valley 2 9/1/26 0220 65.1   17.2 34   17 35.5   5.3 3.6   0.0 SE | 127 7.0   1.1 E | 87 0.00 8.1   0.1 69.1   1.6 0.00 59.6   13.2 66.6   15.5 8.8   1.5
Winnemucca-Dutch Flat Rd 9/1/26 0220 64.8   2.0 24   2 27.4   3.4 2.3   6.0 SW | 214 6.3   6.6 SW | 216 0.00 6.2   0.0 75.8   1.3 0.00 60.0   0.7 66.6   2.8 6.3   6.6
Paradise Valley 2 9/1/26 0220 57.5   5.5 30   1 26.6   3.8 5.3   0.3 N | 354 7.1   0.5 N | 350 0.00 13.1   0.1 76.2   1.3 0.00 54.5   6.1 64.3   7.9 7.1   1.4
Golconda 2 9/1/26 0220 67.2   9.3 26   1 31.6   7.1 2.8   4.2 SSW | 194 4.1   5.1 S | 189 0.00 2.0   0.1 77.9   2.6 0.00 66.3   12.9 69.0   5.6 8.1   3.2
Battle Mountain - South 9/1/26 0220 66.1   18.2 30   4 33.6   13.0 1.4   0.3 NNW | 342 3.5   1.1 WNW | 298 0.00 9.1   0.1 76.6   0.1 0.00 57.9   10.6 67.7   16.2 7.3   1.1
Geiger Summit 9/1/26 0220 57.4   3.7 100   0 57.4   3.7 3.0   1.6 SSW | 211 9.8   6.5 SSW | 198 0.00 6.4   0.1 68.0   0.9 0.00 57.3   1.5 58.1   3.6 14.9   10.8
Combs Canyon 3 9/1/26 0220 66.4   6.5 33   13 36.5   2.4 4.6   3.6 W | 271 14.9   11.2 WSW | 240 0.00 1.0   0.0 77.7   0.4 0.00 66.2   6.6 68.6   4.4 14.9   7.1
Clear Creek 9/1/26 0220 64.0   8.4 27   14 28.9   3.1 9.0   9.0 SW | 231 21.9   21.7 W | 274 0.00 3.5   0.0 74.6   0.2 0.00 63.8   9.0 65.3   5.8 24.8   22.0
Eastlake 2 9/1/26 0220 65.4   10.5 35   20 37.2   1.9 8.9   7.9 W | 268 17.3   15.4 WSW | 257 0.00 3.5   0.0 75.8   0.2 0.00 65.2   11.8 66.8   8.4 19.6   16.4
Lovelock-Colado 2 9/1/26 0220 67.5   15.0 26   6 31.2   8.1 3.5   1.1 E | 83 5.0   2.1 ESE | 106 0.00 - 80.0   1.3 0.00 64.6   12.5 70.9   12.7 7.2   2.1
Spanish Springs NW 9/1/26 0220 66.2   9.6 30   11 33.7   0.6 2.1   1.2 WSW | 250 8.2   5.8 NW | 318 0.00 12.8   0.0 72.9   1.1 0.00 66.1   9.9 67.9   8.2 10.1   6.1
Battle Mountain NW 9/1/26 0220 72.8   16.2 25   2 35.4   12.4 11.6   4.7 ESE | 113 16.2   5.0 ESE | 118 0.00 9.0   0.1 79.0   0.4 0.00 68.4   13.3 73.0   13.0 16.4   5.2
Austin 2 9/1/26 0120 60.7   18.3 20   17 19.5   1.6 8.4   6.9 SSE | 156 11.7   7.3 SSE | 155 0.00 2.1   0.2 60.3   5.8 0.00 58.9   16.8 64.2   17.3 16.8   12.0
Elko-Osino 9/1/26 0220 53.1   1.2 49   19 34.3   11.1 2.5   2.8 NNW | 330 4.1   3.2 NNW | 344 0.00 1.5   0.0 78.0   0.5 0.00 49.4   4.5 56.3   0.4 6.3   4.2
Elko-Bill Fishpond 2 9/1/26 0220 54.4   8.1 50   12 36.4   14.0 5.2   1.1 SE | 140 7.7   0.1 SE | 128 0.00 3.5   0.0 68.3   1.5 0.00 50.9   6.9 56.6   7.8 8.3   0.7
Spring Creek SE 2 9/1/26 0220 54.0   2.3 48   12 35.1   8.9 3.9   2.4 E | 79 5.8   3.6 ENE | 63 0.00 0.4   0.0 72.0   0.0 0.00 51.7   0.1 60.6   2.4 9.7   2.1
Spring Creek NW 9/1/26 0210 58.6   5.0 45   13 37.6   13.1 3.9   1.0 WSW | 237 5.6   1.2 SSW | 210 0.00 2.3   0.0 74.1   0.6 0.00 58.5   5.4 60.7   0.2 9.8   2.2
Elko-Moleen 9/1/26 0220 66.8 35 38.2 9.4 ENE | 69 13.2 E | 79 0.00 6.5 81.1 0.00 60.9 68.8 13.9
Max     89.1 100 67.4 31.0 - 43.5 - 0.00 42.9 102.0 0.00 88.7 89.2 45.2
Avg     64.3 35 34.8 5.9 - 11.2 - 0.00 6.9 75.2 - - - -
Min     50.0 17 19.5 0.0 - 1.0 - 0.00 0.0 0.0 0.00 49.4 51.8 1.7